sensor_id;sensor_type;location;lat;lon;timestamp;P1;durP1;ratioP1;P2;durP2;ratioP2
41434;SDS011;27177;22.262;114.192;2022-12-17T00:00:27;27.35;;;13.45;;
41434;SDS011;27177;22.262;114.192;2022-12-17T00:03:11;23.20;;;13.32;;
41434;SDS011;27177;22.262;114.192;2022-12-17T00:05:56;21.77;;;13.15;;
41434;SDS011;27177;22.262;114.192;2022-12-17T00:08:43;25.83;;;13.90;;
41434;SDS011;27177;22.262;114.192;2022-12-17T00:11:27;20.08;;;12.98;;
41434;SDS011;27177;22.262;114.192;2022-12-17T00:14:12;26.75;;;12.98;;
41434;SDS011;27177;22.262;114.192;2022-12-17T00:16:57;22.02;;;14.25;;
41434;SDS011;27177;22.262;114.192;2022-12-17T00:19:42;24.25;;;14.65;;
41434;SDS011;27177;22.262;114.192;2022-12-17T00:22:26;28.60;;;13.20;;
41434;SDS011;27177;22.262;114.192;2022-12-17T00:25:12;22.95;;;13.73;;
41434;SDS011;27177;22.262;114.192;2022-12-17T00:27:57;24.85;;;14.10;;
41434;SDS011;27177;22.262;114.192;2022-12-17T00:30:49;27.63;;;13.75;;
41434;SDS011;27177;22.262;114.192;2022-12-17T00:33:35;25.58;;;14.68;;
41434;SDS011;27177;22.262;114.192;2022-12-17T00:36:20;24.63;;;14.27;;
41434;SDS011;27177;22.262;114.192;2022-12-17T00:39:04;22.40;;;13.50;;
41434;SDS011;27177;22.262;114.192;2022-12-17T00:41:50;22.55;;;13.75;;
41434;SDS011;27177;22.262;114.192;2022-12-17T00:44:35;26.83;;;14.60;;
41434;SDS011;27177;22.262;114.192;2022-12-17T00:47:19;28.10;;;14.95;;
41434;SDS011;27177;22.262;114.192;2022-12-17T00:50:04;25.35;;;14.57;;
41434;SDS011;27177;22.262;114.192;2022-12-17T00:52:51;25.58;;;15.20;;
41434;SDS011;27177;22.262;114.192;2022-12-17T00:55:36;24.38;;;15.15;;
41434;SDS011;27177;22.262;114.192;2022-12-17T00:58:22;28.25;;;17.25;;
41434;SDS011;27177;22.262;114.192;2022-12-17T01:01:07;22.25;;;14.45;;
41434;SDS011;27177;22.262;114.192;2022-12-17T01:03:52;29.65;;;16.42;;
41434;SDS011;27177;22.262;114.192;2022-12-17T01:06:37;29.13;;;15.18;;
41434;SDS011;27177;22.262;114.192;2022-12-17T01:09:22;30.38;;;17.08;;
41434;SDS011;27177;22.262;114.192;2022-12-17T01:12:07;27.85;;;16.75;;
41434;SDS011;27177;22.262;114.192;2022-12-17T01:14:52;29.25;;;16.67;;
41434;SDS011;27177;22.262;114.192;2022-12-17T01:17:37;30.02;;;17.58;;
41434;SDS011;27177;22.262;114.192;2022-12-17T01:20:22;29.52;;;17.73;;
41434;SDS011;27177;22.262;114.192;2022-12-17T01:23:07;28.05;;;17.60;;
41434;SDS011;27177;22.262;114.192;2022-12-17T01:25:54;31.88;;;18.15;;
41434;SDS011;27177;22.262;114.192;2022-12-17T01:28:40;25.60;;;16.90;;
41434;SDS011;27177;22.262;114.192;2022-12-17T01:31:25;33.40;;;18.52;;
41434;SDS011;27177;22.262;114.192;2022-12-17T01:34:12;30.58;;;18.33;;
41434;SDS011;27177;22.262;114.192;2022-12-17T01:36:57;32.70;;;19.00;;
41434;SDS011;27177;22.262;114.192;2022-12-17T01:39:42;31.38;;;18.65;;
41434;SDS011;27177;22.262;114.192;2022-12-17T01:42:35;33.63;;;18.85;;
41434;SDS011;27177;22.262;114.192;2022-12-17T01:45:42;33.92;;;19.73;;
41434;SDS011;27177;22.262;114.192;2022-12-17T01:48:35;31.27;;;19.25;;
41434;SDS011;27177;22.262;114.192;2022-12-17T01:51:24;34.65;;;20.38;;
41434;SDS011;27177;22.262;114.192;2022-12-17T01:54:11;36.10;;;20.70;;
41434;SDS011;27177;22.262;114.192;2022-12-17T01:56:57;35.83;;;20.55;;
41434;SDS011;27177;22.262;114.192;2022-12-17T01:59:52;32.30;;;19.50;;
41434;SDS011;27177;22.262;114.192;2022-12-17T02:02:50;35.90;;;21.17;;
41434;SDS011;27177;22.262;114.192;2022-12-17T02:06:18;34.42;;;21.10;;
41434;SDS011;27177;22.262;114.192;2022-12-17T02:12:21;42.70;;;21.60;;
41434;SDS011;27177;22.262;114.192;2022-12-17T02:15:13;33.42;;;20.20;;
41434;SDS011;27177;22.262;114.192;2022-12-17T02:18:05;36.03;;;21.33;;
41434;SDS011;27177;22.262;114.192;2022-12-17T02:20:55;35.17;;;19.40;;
41434;SDS011;27177;22.262;114.192;2022-12-17T02:27:03;39.03;;;22.63;;
41434;SDS011;27177;22.262;114.192;2022-12-17T02:29:55;37.00;;;22.33;;
41434;SDS011;27177;22.262;114.192;2022-12-17T02:32:44;37.40;;;23.30;;
41434;SDS011;27177;22.262;114.192;2022-12-17T02:35:31;46.95;;;24.08;;
41434;SDS011;27177;22.262;114.192;2022-12-17T02:38:30;35.90;;;21.75;;
41434;SDS011;27177;22.262;114.192;2022-12-17T02:41:39;34.70;;;22.23;;
41434;SDS011;27177;22.262;114.192;2022-12-17T02:44:26;36.10;;;22.40;;
41434;SDS011;27177;22.262;114.192;2022-12-17T02:47:12;40.30;;;21.92;;
41434;SDS011;27177;22.262;114.192;2022-12-17T02:49:58;41.20;;;23.30;;
41434;SDS011;27177;22.262;114.192;2022-12-17T02:52:46;40.53;;;23.27;;
41434;SDS011;27177;22.262;114.192;2022-12-17T02:55:33;33.58;;;23.55;;
41434;SDS011;27177;22.262;114.192;2022-12-17T02:58:18;38.58;;;22.90;;
41434;SDS011;27177;22.262;114.192;2022-12-17T03:01:04;35.03;;;22.75;;
41434;SDS011;27177;22.262;114.192;2022-12-17T03:06:54;38.45;;;22.40;;
41434;SDS011;27177;22.262;114.192;2022-12-17T03:09:39;34.75;;;22.77;;
41434;SDS011;27177;22.262;114.192;2022-12-17T03:12:24;38.60;;;22.00;;
41434;SDS011;27177;22.262;114.192;2022-12-17T03:15:09;39.35;;;24.17;;
41434;SDS011;27177;22.262;114.192;2022-12-17T03:18:05;41.92;;;23.88;;
41434;SDS011;27177;22.262;114.192;2022-12-17T03:20:53;39.78;;;24.13;;
41434;SDS011;27177;22.262;114.192;2022-12-17T03:23:38;39.20;;;21.88;;
41434;SDS011;27177;22.262;114.192;2022-12-17T03:26:23;35.00;;;21.70;;
41434;SDS011;27177;22.262;114.192;2022-12-17T03:29:08;41.45;;;21.75;;
41434;SDS011;27177;22.262;114.192;2022-12-17T03:31:53;35.30;;;22.88;;
41434;SDS011;27177;22.262;114.192;2022-12-17T03:34:38;36.97;;;22.40;;
41434;SDS011;27177;22.262;114.192;2022-12-17T03:37:22;36.38;;;21.73;;
41434;SDS011;27177;22.262;114.192;2022-12-17T03:40:07;34.00;;;21.98;;
41434;SDS011;27177;22.262;114.192;2022-12-17T03:42:53;30.90;;;20.05;;
41434;SDS011;27177;22.262;114.192;2022-12-17T03:45:38;34.08;;;20.98;;
41434;SDS011;27177;22.262;114.192;2022-12-17T03:48:23;37.05;;;21.13;;
41434;SDS011;27177;22.262;114.192;2022-12-17T03:51:08;34.47;;;20.77;;
41434;SDS011;27177;22.262;114.192;2022-12-17T03:53:53;31.52;;;20.67;;
41434;SDS011;27177;22.262;114.192;2022-12-17T03:56:37;33.47;;;21.33;;
41434;SDS011;27177;22.262;114.192;2022-12-17T03:59:22;31.05;;;19.75;;
41434;SDS011;27177;22.262;114.192;2022-12-17T04:02:07;33.50;;;18.88;;
41434;SDS011;27177;22.262;114.192;2022-12-17T04:04:52;31.23;;;19.02;;
41434;SDS011;27177;22.262;114.192;2022-12-17T04:07:37;31.63;;;19.48;;
41434;SDS011;27177;22.262;114.192;2022-12-17T04:10:22;31.35;;;18.38;;
41434;SDS011;27177;22.262;114.192;2022-12-17T04:13:06;26.20;;;17.83;;
41434;SDS011;27177;22.262;114.192;2022-12-17T04:15:51;27.73;;;17.23;;
41434;SDS011;27177;22.262;114.192;2022-12-17T04:18:36;27.90;;;17.73;;
41434;SDS011;27177;22.262;114.192;2022-12-17T04:21:21;27.33;;;17.70;;
41434;SDS011;27177;22.262;114.192;2022-12-17T04:24:06;29.23;;;17.35;;
41434;SDS011;27177;22.262;114.192;2022-12-17T04:26:51;25.63;;;16.05;;
41434;SDS011;27177;22.262;114.192;2022-12-17T04:29:52;28.23;;;16.05;;
41434;SDS011;27177;22.262;114.192;2022-12-17T04:32:37;23.77;;;15.32;;
41434;SDS011;27177;22.262;114.192;2022-12-17T04:35:22;24.67;;;15.75;;
41434;SDS011;27177;22.262;114.192;2022-12-17T04:38:07;23.95;;;15.77;;
41434;SDS011;27177;22.262;114.192;2022-12-17T04:40:51;20.98;;;14.48;;
41434;SDS011;27177;22.262;114.192;2022-12-17T04:43:36;23.60;;;16.17;;
41434;SDS011;27177;22.262;114.192;2022-12-17T04:46:21;24.40;;;13.57;;
41434;SDS011;27177;22.262;114.192;2022-12-17T04:49:06;20.98;;;15.57;;
41434;SDS011;27177;22.262;114.192;2022-12-17T04:51:51;23.67;;;14.85;;
41434;SDS011;27177;22.262;114.192;2022-12-17T04:54:47;25.80;;;13.60;;
41434;SDS011;27177;22.262;114.192;2022-12-17T04:57:32;24.23;;;14.70;;
41434;SDS011;27177;22.262;114.192;2022-12-17T05:00:17;23.40;;;13.23;;
41434;SDS011;27177;22.262;114.192;2022-12-17T05:03:06;23.20;;;14.10;;
41434;SDS011;27177;22.262;114.192;2022-12-17T05:05:55;24.63;;;14.90;;
41434;SDS011;27177;22.262;114.192;2022-12-17T05:08:40;22.58;;;13.85;;
41434;SDS011;27177;22.262;114.192;2022-12-17T05:11:25;22.35;;;14.60;;
41434;SDS011;27177;22.262;114.192;2022-12-17T05:14:10;21.23;;;14.25;;
41434;SDS011;27177;22.262;114.192;2022-12-17T05:16:55;23.38;;;13.10;;
41434;SDS011;27177;22.262;114.192;2022-12-17T05:19:40;20.60;;;13.07;;
41434;SDS011;27177;22.262;114.192;2022-12-17T05:22:24;19.50;;;12.52;;
41434;SDS011;27177;22.262;114.192;2022-12-17T05:25:09;17.88;;;12.85;;
41434;SDS011;27177;22.262;114.192;2022-12-17T05:27:54;22.30;;;12.90;;
41434;SDS011;27177;22.262;114.192;2022-12-17T05:30:39;18.73;;;12.63;;
41434;SDS011;27177;22.262;114.192;2022-12-17T05:33:25;18.77;;;12.93;;
41434;SDS011;27177;22.262;114.192;2022-12-17T05:36:10;16.50;;;11.32;;
41434;SDS011;27177;22.262;114.192;2022-12-17T05:38:55;21.45;;;12.55;;
41434;SDS011;27177;22.262;114.192;2022-12-17T05:41:40;26.08;;;12.05;;
41434;SDS011;27177;22.262;114.192;2022-12-17T05:44:25;20.02;;;13.23;;
41434;SDS011;27177;22.262;114.192;2022-12-17T05:47:09;19.48;;;11.48;;
41434;SDS011;27177;22.262;114.192;2022-12-17T05:49:54;23.05;;;12.05;;
41434;SDS011;27177;22.262;114.192;2022-12-17T05:52:39;19.63;;;12.35;;
41434;SDS011;27177;22.262;114.192;2022-12-17T05:55:23;16.88;;;10.90;;
41434;SDS011;27177;22.262;114.192;2022-12-17T05:58:09;15.18;;;10.70;;
41434;SDS011;27177;22.262;114.192;2022-12-17T06:00:54;14.45;;;10.40;;
41434;SDS011;27177;22.262;114.192;2022-12-17T06:03:41;17.05;;;10.68;;
41434;SDS011;27177;22.262;114.192;2022-12-17T06:06:25;16.02;;;9.88;;
41434;SDS011;27177;22.262;114.192;2022-12-17T06:09:11;19.50;;;10.25;;
41434;SDS011;27177;22.262;114.192;2022-12-17T06:11:55;19.15;;;10.52;;
41434;SDS011;27177;22.262;114.192;2022-12-17T06:14:40;17.05;;;10.38;;
41434;SDS011;27177;22.262;114.192;2022-12-17T06:17:25;15.85;;;10.13;;
41434;SDS011;27177;22.262;114.192;2022-12-17T06:20:11;15.82;;;9.35;;
41434;SDS011;27177;22.262;114.192;2022-12-17T06:23:02;16.15;;;9.77;;
41434;SDS011;27177;22.262;114.192;2022-12-17T06:25:53;19.63;;;9.57;;
41434;SDS011;27177;22.262;114.192;2022-12-17T06:28:39;13.23;;;8.57;;
41434;SDS011;27177;22.262;114.192;2022-12-17T06:31:25;16.52;;;9.48;;
41434;SDS011;27177;22.262;114.192;2022-12-17T06:34:10;17.98;;;9.18;;
41434;SDS011;27177;22.262;114.192;2022-12-17T06:36:55;15.02;;;8.73;;
41434;SDS011;27177;22.262;114.192;2022-12-17T06:39:40;13.82;;;9.15;;
41434;SDS011;27177;22.262;114.192;2022-12-17T06:42:25;14.52;;;9.82;;
41434;SDS011;27177;22.262;114.192;2022-12-17T06:45:10;13.50;;;8.63;;
41434;SDS011;27177;22.262;114.192;2022-12-17T06:48:01;14.05;;;8.73;;
41434;SDS011;27177;22.262;114.192;2022-12-17T06:50:48;15.15;;;8.98;;
41434;SDS011;27177;22.262;114.192;2022-12-17T06:53:33;13.38;;;8.05;;
41434;SDS011;27177;22.262;114.192;2022-12-17T06:56:18;16.88;;;9.15;;
41434;SDS011;27177;22.262;114.192;2022-12-17T06:59:03;12.85;;;8.60;;
41434;SDS011;27177;22.262;114.192;2022-12-17T07:01:52;14.70;;;7.72;;
41434;SDS011;27177;22.262;114.192;2022-12-17T07:04:37;16.63;;;8.52;;
41434;SDS011;27177;22.262;114.192;2022-12-17T07:07:22;19.38;;;9.40;;
41434;SDS011;27177;22.262;114.192;2022-12-17T07:10:07;14.98;;;8.93;;
41434;SDS011;27177;22.262;114.192;2022-12-17T07:12:52;11.65;;;7.65;;
41434;SDS011;27177;22.262;114.192;2022-12-17T07:15:36;15.50;;;7.75;;
41434;SDS011;27177;22.262;114.192;2022-12-17T07:18:21;12.52;;;8.07;;
41434;SDS011;27177;22.262;114.192;2022-12-17T07:21:06;13.65;;;6.93;;
41434;SDS011;27177;22.262;114.192;2022-12-17T07:23:51;11.23;;;7.15;;
41434;SDS011;27177;22.262;114.192;2022-12-17T07:26:36;13.10;;;6.60;;
41434;SDS011;27177;22.262;114.192;2022-12-17T07:29:21;9.35;;;6.45;;
41434;SDS011;27177;22.262;114.192;2022-12-17T07:32:05;14.48;;;6.47;;
41434;SDS011;27177;22.262;114.192;2022-12-17T07:34:50;13.98;;;7.03;;
41434;SDS011;27177;22.262;114.192;2022-12-17T07:37:35;13.32;;;8.77;;
41434;SDS011;27177;22.262;114.192;2022-12-17T07:40:20;13.25;;;6.70;;
41434;SDS011;27177;22.262;114.192;2022-12-17T07:43:09;11.70;;;6.45;;
41434;SDS011;27177;22.262;114.192;2022-12-17T07:48:41;13.00;;;7.22;;
41434;SDS011;27177;22.262;114.192;2022-12-17T07:54:03;9.40;;;5.80;;
41434;SDS011;27177;22.262;114.192;2022-12-17T07:56:49;15.52;;;6.50;;
41434;SDS011;27177;22.262;114.192;2022-12-17T07:59:34;13.13;;;5.95;;
41434;SDS011;27177;22.262;114.192;2022-12-17T08:02:19;13.18;;;5.70;;
41434;SDS011;27177;22.262;114.192;2022-12-17T08:05:04;12.30;;;5.93;;
41434;SDS011;27177;22.262;114.192;2022-12-17T08:07:51;13.43;;;6.50;;
41434;SDS011;27177;22.262;114.192;2022-12-17T08:10:36;10.23;;;5.75;;
41434;SDS011;27177;22.262;114.192;2022-12-17T08:13:21;12.07;;;5.43;;
41434;SDS011;27177;22.262;114.192;2022-12-17T08:16:06;11.02;;;5.93;;
41434;SDS011;27177;22.262;114.192;2022-12-17T08:18:51;10.77;;;5.97;;
41434;SDS011;27177;22.262;114.192;2022-12-17T08:21:36;11.98;;;5.85;;
41434;SDS011;27177;22.262;114.192;2022-12-17T08:24:21;19.92;;;7.57;;
41434;SDS011;27177;22.262;114.192;2022-12-17T08:27:06;12.13;;;6.00;;
41434;SDS011;27177;22.262;114.192;2022-12-17T08:29:52;13.68;;;6.03;;
41434;SDS011;27177;22.262;114.192;2022-12-17T08:32:38;10.35;;;6.40;;
41434;SDS011;27177;22.262;114.192;2022-12-17T08:35:49;11.07;;;5.93;;
41434;SDS011;27177;22.262;114.192;2022-12-17T08:38:38;12.82;;;5.88;;
41434;SDS011;27177;22.262;114.192;2022-12-17T08:41:23;9.98;;;5.00;;
41434;SDS011;27177;22.262;114.192;2022-12-17T08:44:08;13.90;;;6.03;;
41434;SDS011;27177;22.262;114.192;2022-12-17T08:46:53;10.25;;;5.35;;
41434;SDS011;27177;22.262;114.192;2022-12-17T08:49:39;9.60;;;5.32;;
41434;SDS011;27177;22.262;114.192;2022-12-17T08:52:25;17.95;;;5.90;;
41434;SDS011;27177;22.262;114.192;2022-12-17T08:55:10;11.27;;;5.05;;
41434;SDS011;27177;22.262;114.192;2022-12-17T08:57:58;12.48;;;5.30;;
41434;SDS011;27177;22.262;114.192;2022-12-17T09:00:43;16.30;;;5.15;;
41434;SDS011;27177;22.262;114.192;2022-12-17T09:03:28;11.35;;;4.55;;
41434;SDS011;27177;22.262;114.192;2022-12-17T09:06:13;9.15;;;5.00;;
41434;SDS011;27177;22.262;114.192;2022-12-17T09:08:58;10.75;;;5.07;;
41434;SDS011;27177;22.262;114.192;2022-12-17T09:11:43;12.73;;;6.13;;
41434;SDS011;27177;22.262;114.192;2022-12-17T09:14:28;10.65;;;5.65;;
41434;SDS011;27177;22.262;114.192;2022-12-17T09:17:13;10.57;;;5.40;;
41434;SDS011;27177;22.262;114.192;2022-12-17T09:19:58;11.30;;;4.95;;
41434;SDS011;27177;22.262;114.192;2022-12-17T09:22:53;11.40;;;4.85;;
41434;SDS011;27177;22.262;114.192;2022-12-17T09:25:40;9.70;;;4.68;;
41434;SDS011;27177;22.262;114.192;2022-12-17T09:28:24;11.10;;;4.55;;
41434;SDS011;27177;22.262;114.192;2022-12-17T09:31:11;9.27;;;4.57;;
41434;SDS011;27177;22.262;114.192;2022-12-17T09:33:55;8.75;;;4.90;;
41434;SDS011;27177;22.262;114.192;2022-12-17T09:36:40;11.68;;;5.28;;
41434;SDS011;27177;22.262;114.192;2022-12-17T09:39:25;9.60;;;4.85;;
41434;SDS011;27177;22.262;114.192;2022-12-17T09:45:03;10.18;;;5.20;;
41434;SDS011;27177;22.262;114.192;2022-12-17T09:48:07;11.43;;;4.95;;
41434;SDS011;27177;22.262;114.192;2022-12-17T09:50:55;14.60;;;5.60;;
41434;SDS011;27177;22.262;114.192;2022-12-17T09:53:49;13.73;;;5.13;;
41434;SDS011;27177;22.262;114.192;2022-12-17T09:56:36;14.60;;;5.28;;
41434;SDS011;27177;22.262;114.192;2022-12-17T09:59:25;11.88;;;5.15;;
41434;SDS011;27177;22.262;114.192;2022-12-17T10:02:13;20.30;;;6.18;;
41434;SDS011;27177;22.262;114.192;2022-12-17T10:05:25;8.85;;;4.45;;
41434;SDS011;27177;22.262;114.192;2022-12-17T10:08:13;13.80;;;5.28;;
41434;SDS011;27177;22.262;114.192;2022-12-17T10:14:19;8.85;;;4.47;;
41434;SDS011;27177;22.262;114.192;2022-12-17T10:17:13;10.98;;;4.90;;
41434;SDS011;27177;22.262;114.192;2022-12-17T10:20:29;15.50;;;6.03;;
41434;SDS011;27177;22.262;114.192;2022-12-17T10:23:23;10.10;;;5.65;;
41434;SDS011;27177;22.262;114.192;2022-12-17T10:26:08;10.45;;;5.68;;
41434;SDS011;27177;22.262;114.192;2022-12-17T10:29:04;14.13;;;5.40;;
41434;SDS011;27177;22.262;114.192;2022-12-17T10:31:58;17.95;;;6.53;;
41434;SDS011;27177;22.262;114.192;2022-12-17T10:34:52;10.57;;;5.25;;
41434;SDS011;27177;22.262;114.192;2022-12-17T10:37:38;16.50;;;5.13;;
41434;SDS011;27177;22.262;114.192;2022-12-17T10:43:21;8.70;;;5.07;;
41434;SDS011;27177;22.262;114.192;2022-12-17T10:46:09;13.68;;;5.68;;
41434;SDS011;27177;22.262;114.192;2022-12-17T10:49:08;9.73;;;4.90;;
41434;SDS011;27177;22.262;114.192;2022-12-17T10:51:59;10.38;;;5.25;;
41434;SDS011;27177;22.262;114.192;2022-12-17T10:54:57;11.98;;;5.07;;
41434;SDS011;27177;22.262;114.192;2022-12-17T10:57:48;11.70;;;6.32;;
41434;SDS011;27177;22.262;114.192;2022-12-17T11:00:38;16.10;;;5.80;;
41434;SDS011;27177;22.262;114.192;2022-12-17T11:03:31;11.77;;;5.78;;
41434;SDS011;27177;22.262;114.192;2022-12-17T11:06:53;14.02;;;6.75;;
41434;SDS011;27177;22.262;114.192;2022-12-17T11:09:41;20.27;;;6.85;;
41434;SDS011;27177;22.262;114.192;2022-12-17T11:12:31;13.27;;;5.95;;
41434;SDS011;27177;22.262;114.192;2022-12-17T11:15:38;15.77;;;6.00;;
41434;SDS011;27177;22.262;114.192;2022-12-17T11:21:32;18.42;;;7.60;;
41434;SDS011;27177;22.262;114.192;2022-12-17T11:24:31;14.73;;;5.72;;
41434;SDS011;27177;22.262;114.192;2022-12-17T11:27:35;15.13;;;5.65;;
41434;SDS011;27177;22.262;114.192;2022-12-17T11:30:26;10.77;;;5.82;;
41434;SDS011;27177;22.262;114.192;2022-12-17T11:36:46;14.10;;;5.65;;
41434;SDS011;27177;22.262;114.192;2022-12-17T11:39:40;17.70;;;6.13;;
41434;SDS011;27177;22.262;114.192;2022-12-17T11:42:43;10.80;;;5.30;;
41434;SDS011;27177;22.262;114.192;2022-12-17T11:45:41;11.63;;;5.85;;
41434;SDS011;27177;22.262;114.192;2022-12-17T11:48:55;13.57;;;6.38;;
41434;SDS011;27177;22.262;114.192;2022-12-17T11:52:11;16.42;;;5.65;;
41434;SDS011;27177;22.262;114.192;2022-12-17T11:57:56;12.82;;;5.45;;
41434;SDS011;27177;22.262;114.192;2022-12-17T12:04:11;14.20;;;5.45;;
41434;SDS011;27177;22.262;114.192;2022-12-17T12:10:24;17.23;;;5.88;;
41434;SDS011;27177;22.262;114.192;2022-12-17T12:13:22;13.50;;;5.55;;
41434;SDS011;27177;22.262;114.192;2022-12-17T12:16:12;10.68;;;5.30;;
41434;SDS011;27177;22.262;114.192;2022-12-17T12:19:22;11.27;;;5.47;;
41434;SDS011;27177;22.262;114.192;2022-12-17T12:22:19;11.67;;;5.53;;
41434;SDS011;27177;22.262;114.192;2022-12-17T12:25:23;11.60;;;5.13;;
41434;SDS011;27177;22.262;114.192;2022-12-17T12:28:39;10.15;;;4.63;;
41434;SDS011;27177;22.262;114.192;2022-12-17T12:31:43;11.10;;;4.65;;
41434;SDS011;27177;22.262;114.192;2022-12-17T12:34:38;12.82;;;4.78;;
41434;SDS011;27177;22.262;114.192;2022-12-17T12:37:24;11.35;;;5.82;;
41434;SDS011;27177;22.262;114.192;2022-12-17T12:43:34;9.43;;;4.70;;
41434;SDS011;27177;22.262;114.192;2022-12-17T12:49:28;9.95;;;5.05;;
41434;SDS011;27177;22.262;114.192;2022-12-17T12:52:28;11.77;;;4.20;;
41434;SDS011;27177;22.262;114.192;2022-12-17T12:55:14;12.30;;;4.47;;
41434;SDS011;27177;22.262;114.192;2022-12-17T12:58:01;13.40;;;5.07;;
41434;SDS011;27177;22.262;114.192;2022-12-17T13:14:29;11.13;;;4.82;;
41434;SDS011;27177;22.262;114.192;2022-12-17T13:24:54;9.45;;;4.35;;
41434;SDS011;27177;22.262;114.192;2022-12-17T13:27:40;12.73;;;4.45;;
41434;SDS011;27177;22.262;114.192;2022-12-17T13:30:29;8.98;;;4.75;;
41434;SDS011;27177;22.262;114.192;2022-12-17T13:41:25;8.23;;;4.30;;
41434;SDS011;27177;22.262;114.192;2022-12-17T13:43:55;12.77;;;4.30;;
41434;SDS011;27177;22.262;114.192;2022-12-17T13:46:44;9.10;;;4.45;;
41434;SDS011;27177;22.262;114.192;2022-12-17T13:49:28;10.18;;;4.22;;
41434;SDS011;27177;22.262;114.192;2022-12-17T13:52:03;10.55;;;4.75;;
41434;SDS011;27177;22.262;114.192;2022-12-17T13:54:32;15.60;;;4.68;;
41434;SDS011;27177;22.262;114.192;2022-12-17T13:57:06;8.98;;;4.03;;
41434;SDS011;27177;22.262;114.192;2022-12-17T13:59:40;9.88;;;4.13;;
41434;SDS011;27177;22.262;114.192;2022-12-17T14:02:47;8.75;;;3.95;;
41434;SDS011;27177;22.262;114.192;2022-12-17T14:05:20;9.30;;;4.45;;
41434;SDS011;27177;22.262;114.192;2022-12-17T14:07:49;7.13;;;4.18;;
41434;SDS011;27177;22.262;114.192;2022-12-17T14:10:18;9.45;;;4.13;;
41434;SDS011;27177;22.262;114.192;2022-12-17T14:12:46;11.23;;;4.43;;
41434;SDS011;27177;22.262;114.192;2022-12-17T14:15:24;9.30;;;4.07;;
41434;SDS011;27177;22.262;114.192;2022-12-17T14:17:56;7.00;;;4.13;;
41434;SDS011;27177;22.262;114.192;2022-12-17T14:20:25;9.10;;;4.32;;
41434;SDS011;27177;22.262;114.192;2022-12-17T14:22:58;9.15;;;4.88;;
41434;SDS011;27177;22.262;114.192;2022-12-17T14:25:48;9.93;;;3.97;;
41434;SDS011;27177;22.262;114.192;2022-12-17T14:28:34;14.27;;;4.55;;
41434;SDS011;27177;22.262;114.192;2022-12-17T14:33:41;10.35;;;4.32;;
41434;SDS011;27177;22.262;114.192;2022-12-17T14:36:16;8.02;;;3.90;;
41434;SDS011;27177;22.262;114.192;2022-12-17T14:39:04;6.28;;;3.78;;
41434;SDS011;27177;22.262;114.192;2022-12-17T14:41:56;14.13;;;4.32;;
41434;SDS011;27177;22.262;114.192;2022-12-17T14:45:35;10.30;;;4.55;;
41434;SDS011;27177;22.262;114.192;2022-12-17T14:47:56;9.90;;;4.55;;
41434;SDS011;27177;22.262;114.192;2022-12-17T14:50:32;12.43;;;3.88;;
41434;SDS011;27177;22.262;114.192;2022-12-17T14:53:04;8.32;;;3.63;;
41434;SDS011;27177;22.262;114.192;2022-12-17T14:55:56;6.72;;;3.53;;
41434;SDS011;27177;22.262;114.192;2022-12-17T14:58:25;7.65;;;4.22;;
41434;SDS011;27177;22.262;114.192;2022-12-17T15:03:33;10.35;;;3.85;;
41434;SDS011;27177;22.262;114.192;2022-12-17T15:06:08;8.15;;;3.88;;
41434;SDS011;27177;22.262;114.192;2022-12-17T15:08:40;5.70;;;3.00;;
41434;SDS011;27177;22.262;114.192;2022-12-17T15:11:14;6.60;;;3.22;;
41434;SDS011;27177;22.262;114.192;2022-12-17T15:13:43;7.78;;;4.13;;
41434;SDS011;27177;22.262;114.192;2022-12-17T15:16:11;9.07;;;3.72;;
41434;SDS011;27177;22.262;114.192;2022-12-17T15:18:40;8.18;;;4.03;;
41434;SDS011;27177;22.262;114.192;2022-12-17T15:21:08;11.10;;;3.78;;
41434;SDS011;27177;22.262;114.192;2022-12-17T15:23:40;8.43;;;3.47;;
41434;SDS011;27177;22.262;114.192;2022-12-17T15:26:08;20.92;;;4.03;;
41434;SDS011;27177;22.262;114.192;2022-12-17T15:28:36;7.82;;;3.40;;
41434;SDS011;27177;22.262;114.192;2022-12-17T15:31:02;7.28;;;3.70;;
41434;SDS011;27177;22.262;114.192;2022-12-17T15:33:29;9.70;;;3.15;;
41434;SDS011;27177;22.262;114.192;2022-12-17T15:35:56;8.73;;;3.70;;
41434;SDS011;27177;22.262;114.192;2022-12-17T15:38:25;11.27;;;3.15;;
41434;SDS011;27177;22.262;114.192;2022-12-17T15:40:52;8.57;;;3.40;;
41434;SDS011;27177;22.262;114.192;2022-12-17T15:43:19;7.40;;;3.13;;
41434;SDS011;27177;22.262;114.192;2022-12-17T15:45:47;6.35;;;3.10;;
41434;SDS011;27177;22.262;114.192;2022-12-17T15:48:17;6.78;;;4.65;;
41434;SDS011;27177;22.262;114.192;2022-12-17T15:50:48;9.55;;;3.53;;
41434;SDS011;27177;22.262;114.192;2022-12-17T15:53:15;8.25;;;3.58;;
41434;SDS011;27177;22.262;114.192;2022-12-17T15:55:44;8.18;;;3.40;;
41434;SDS011;27177;22.262;114.192;2022-12-17T15:58:15;9.27;;;4.25;;
41434;SDS011;27177;22.262;114.192;2022-12-17T16:00:45;9.63;;;3.28;;
41434;SDS011;27177;22.262;114.192;2022-12-17T16:03:12;6.05;;;3.58;;
41434;SDS011;27177;22.262;114.192;2022-12-17T16:05:40;6.13;;;3.10;;
41434;SDS011;27177;22.262;114.192;2022-12-17T16:08:09;8.40;;;3.65;;
41434;SDS011;27177;22.262;114.192;2022-12-17T16:10:36;6.72;;;3.97;;
41434;SDS011;27177;22.262;114.192;2022-12-17T16:13:03;12.80;;;3.80;;
41434;SDS011;27177;22.262;114.192;2022-12-17T16:15:30;7.85;;;3.85;;
41434;SDS011;27177;22.262;114.192;2022-12-17T16:17:58;10.02;;;5.35;;
41434;SDS011;27177;22.262;114.192;2022-12-17T16:20:25;6.35;;;3.58;;
41434;SDS011;27177;22.262;114.192;2022-12-17T16:22:52;11.02;;;3.80;;
41434;SDS011;27177;22.262;114.192;2022-12-17T16:25:19;6.78;;;3.33;;
41434;SDS011;27177;22.262;114.192;2022-12-17T16:27:45;7.18;;;3.60;;
41434;SDS011;27177;22.262;114.192;2022-12-17T16:30:12;7.82;;;3.30;;
41434;SDS011;27177;22.262;114.192;2022-12-17T16:32:39;5.43;;;3.55;;
41434;SDS011;27177;22.262;114.192;2022-12-17T16:35:06;6.53;;;3.30;;
41434;SDS011;27177;22.262;114.192;2022-12-17T16:37:33;8.90;;;3.55;;
41434;SDS011;27177;22.262;114.192;2022-12-17T16:40:00;6.43;;;3.40;;
41434;SDS011;27177;22.262;114.192;2022-12-17T16:42:27;7.90;;;3.70;;
41434;SDS011;27177;22.262;114.192;2022-12-17T16:44:53;7.05;;;3.60;;
41434;SDS011;27177;22.262;114.192;2022-12-17T16:47:20;8.23;;;4.22;;
41434;SDS011;27177;22.262;114.192;2022-12-17T16:49:50;8.32;;;3.90;;
41434;SDS011;27177;22.262;114.192;2022-12-17T16:52:17;6.90;;;3.47;;
41434;SDS011;27177;22.262;114.192;2022-12-17T16:54:45;7.70;;;3.55;;
41434;SDS011;27177;22.262;114.192;2022-12-17T16:57:14;8.40;;;3.83;;
41434;SDS011;27177;22.262;114.192;2022-12-17T16:59:42;8.63;;;4.05;;
41434;SDS011;27177;22.262;114.192;2022-12-17T17:02:14;5.78;;;3.17;;
41434;SDS011;27177;22.262;114.192;2022-12-17T17:04:42;5.82;;;3.50;;
41434;SDS011;27177;22.262;114.192;2022-12-17T17:07:16;7.97;;;3.80;;